createdAt,value
2023-05-25T00:00:15.832Z,12.80
2023-05-25T00:05:18.455Z,12.80
2023-05-25T00:10:20.453Z,12.80
2023-05-25T00:15:23.252Z,12.80
2023-05-25T00:20:25.200Z,12.80
2023-05-25T00:25:27.090Z,12.70
2023-05-25T00:30:28.935Z,12.70
2023-05-25T00:35:30.778Z,12.70
2023-05-25T00:40:33.071Z,12.70
2023-05-25T00:45:35.054Z,12.70
2023-05-25T00:50:39.016Z,12.70
2023-05-25T00:55:56.010Z,12.70
2023-05-25T01:00:58.502Z,12.70
2023-05-25T01:06:04.132Z,12.70
2023-05-25T01:11:06.745Z,12.70
2023-05-25T01:16:09.903Z,12.70
2023-05-25T01:21:20.220Z,12.70
2023-05-25T01:26:23.955Z,12.60
2023-05-25T01:31:26.180Z,12.60
2023-05-25T01:36:28.060Z,12.60
2023-05-25T01:41:29.936Z,12.50
2023-05-25T01:46:38.312Z,12.40
2023-05-25T01:52:08.318Z,12.40
2023-05-25T01:57:17.857Z,12.40
2023-05-25T02:02:20.583Z,12.30
2023-05-25T02:07:25.637Z,12.30
2023-05-25T02:12:27.534Z,12.30
2023-05-25T02:17:30.259Z,12.20
2023-05-25T02:22:32.931Z,12.20
2023-05-25T02:27:36.206Z,12.10
2023-05-25T02:32:38.113Z,12.00
2023-05-25T02:37:40.169Z,12.00
2023-05-25T02:42:42.006Z,12.00
2023-05-25T02:47:43.871Z,12.00
2023-05-25T02:52:45.774Z,12.00
2023-05-25T02:57:47.656Z,12.00
2023-05-25T03:02:50.688Z,11.90
2023-05-25T03:07:54.369Z,11.90
2023-05-25T03:12:56.243Z,11.90
2023-05-25T03:18:01.374Z,11.90
2023-05-25T03:23:03.475Z,11.90
2023-05-25T03:28:05.434Z,11.90
2023-05-25T03:33:07.399Z,12.00
2023-05-25T03:38:09.352Z,12.00
2023-05-25T03:43:11.222Z,12.10
2023-05-25T03:48:13.069Z,12.10
2023-05-25T03:53:14.919Z,12.10
2023-05-25T03:58:18.481Z,12.20
2023-05-25T04:03:20.828Z,12.20
2023-05-25T04:08:23.998Z,12.30
2023-05-25T04:13:26.297Z,12.30
2023-05-25T04:18:28.204Z,12.40
2023-05-25T04:23:30.096Z,12.50
2023-05-25T04:28:32.549Z,12.60
2023-05-25T04:33:39.667Z,12.70
2023-05-25T04:38:43.020Z,12.80
2023-05-25T04:44:05.326Z,13.00
2023-05-25T04:49:09.928Z,13.00
2023-05-25T04:54:11.826Z,13.20
2023-05-25T04:59:13.714Z,13.40
2023-05-25T05:04:16.711Z,13.70
2023-05-25T05:09:18.681Z,14.10
2023-05-25T05:14:20.980Z,14.50
2023-05-25T05:19:23.537Z,14.90
2023-05-25T05:24:26.029Z,15.20
2023-05-25T05:29:28.813Z,15.70
2023-05-25T05:34:30.714Z,16.00
2023-05-25T05:39:32.562Z,16.20
2023-05-25T05:44:34.396Z,16.40
2023-05-25T05:49:38.246Z,16.60
2023-05-25T05:54:40.112Z,16.90
2023-05-25T05:59:42.283Z,17.00
2023-05-25T06:04:44.201Z,17.40
2023-05-25T06:09:47.157Z,17.60
2023-05-25T06:14:52.138Z,17.70
2023-05-25T06:19:56.196Z,17.80
2023-05-25T06:24:59.258Z,18.00
2023-05-25T06:30:01.221Z,18.20
2023-05-25T06:35:03.232Z,18.60
2023-05-25T06:40:09.552Z,19.00
2023-05-25T06:45:11.935Z,19.20
2023-05-25T06:50:13.892Z,19.50
2023-05-25T06:55:15.937Z,19.30
2023-05-25T07:00:18.732Z,19.60
2023-05-25T07:05:20.695Z,19.70
2023-05-25T07:10:22.943Z,20.00
2023-05-25T07:15:24.830Z,20.30
2023-05-25T07:20:27.600Z,20.90
2023-05-25T07:25:29.523Z,20.90
2023-05-25T07:30:32.419Z,20.60
2023-05-25T07:35:35.547Z,20.30
2023-05-25T07:40:37.558Z,20.20
2023-05-25T07:45:40.081Z,20.00
2023-05-25T07:50:41.921Z,20.10
2023-05-25T07:55:44.053Z,20.10
2023-05-25T08:00:49.761Z,20.20
2023-05-25T08:05:52.000Z,20.30
2023-05-25T08:10:53.924Z,21.00
2023-05-25T08:15:55.834Z,21.90
2023-05-25T08:20:58.296Z,22.20
2023-05-25T08:26:01.221Z,22.30
2023-05-25T08:31:04.295Z,22.30
2023-05-25T08:36:06.678Z,22.50
2023-05-25T08:41:08.800Z,22.60
2023-05-25T08:46:10.696Z,22.70
2023-05-25T08:51:13.867Z,22.70
2023-05-25T08:56:23.228Z,22.80
2023-05-25T09:01:27.748Z,23.10
2023-05-25T09:06:29.960Z,23.40
2023-05-25T09:11:39.699Z,23.60
2023-05-25T09:16:42.666Z,24.10
2023-05-25T09:21:44.889Z,24.00
2023-05-25T09:26:48.910Z,23.80
2023-05-25T09:31:51.019Z,23.50
2023-05-25T09:36:53.089Z,23.70
2023-05-25T09:41:55.114Z,24.20
2023-05-25T09:46:56.976Z,23.80
2023-05-25T09:51:59.299Z,23.80
2023-05-25T09:57:05.376Z,23.90
2023-05-25T10:02:07.373Z,23.70
2023-05-25T10:07:09.262Z,23.60
2023-05-25T10:12:12.036Z,23.50
2023-05-25T10:17:19.952Z,23.50
2023-05-25T10:22:37.157Z,23.30
2023-05-25T10:46:38.729Z,23.00
2023-05-25T11:11:05.629Z,23.80
2023-05-25T11:16:19.068Z,23.50
2023-05-25T11:21:27.314Z,23.60
2023-05-25T11:26:34.293Z,23.40
2023-05-25T11:37:33.564Z,23.40
2023-05-25T11:42:36.113Z,24.10
2023-05-25T11:47:38.237Z,24.30
2023-05-25T11:52:40.399Z,24.40
2023-05-25T11:57:42.334Z,24.40
2023-05-25T12:02:44.358Z,24.50
2023-05-25T12:07:47.141Z,24.70
2023-05-25T12:12:50.452Z,24.40
2023-05-25T12:17:54.353Z,24.30
2023-05-25T12:22:57.865Z,24.30
2023-05-25T12:28:13.605Z,24.30
2023-05-25T12:33:15.621Z,24.50
2023-05-25T12:38:19.665Z,24.40
2023-05-25T12:43:21.620Z,24.40
2023-05-25T12:54:06.260Z,24.20
2023-05-25T12:59:17.126Z,24.20
2023-05-25T13:04:18.969Z,24.00
2023-05-25T13:09:23.938Z,24.20
2023-05-25T13:14:29.393Z,24.30
2023-05-25T13:19:31.414Z,24.40
2023-05-25T13:24:33.883Z,24.20
2023-05-25T13:29:36.106Z,24.40
2023-05-25T13:34:37.977Z,24.20
2023-05-25T13:39:39.891Z,24.30
2023-05-25T13:44:41.899Z,24.60
2023-05-25T13:49:45.826Z,24.50
2023-05-25T13:54:47.688Z,24.60
2023-05-25T13:59:49.624Z,24.60
2023-05-25T14:04:51.532Z,24.50
2023-05-25T14:09:57.505Z,24.20
2023-05-25T14:15:00.127Z,23.90
2023-05-25T14:20:04.319Z,23.70
2023-05-25T14:25:07.320Z,23.70
2023-05-25T14:30:14.201Z,23.80
2023-05-25T14:35:16.614Z,23.70
2023-05-25T14:40:18.618Z,23.80
2023-05-25T14:45:20.601Z,23.70
2023-05-25T14:50:22.552Z,23.70
2023-05-25T14:55:25.750Z,23.70
2023-05-25T15:00:27.651Z,23.60
2023-05-25T15:05:29.581Z,23.50
2023-05-25T15:10:34.482Z,23.50
2023-05-25T15:15:39.208Z,23.40
2023-05-25T15:20:42.023Z,23.30
2023-05-25T15:25:46.093Z,23.30
2023-05-25T15:30:48.310Z,23.20
2023-05-25T15:35:50.241Z,23.10
2023-05-25T15:40:52.107Z,23.10
2023-05-25T15:45:54.968Z,23.10
2023-05-25T15:50:56.933Z,23.10
2023-05-25T15:55:58.786Z,23.00
2023-05-25T16:01:01.120Z,22.90
2023-05-25T16:06:03.164Z,22.80
2023-05-25T16:11:06.247Z,22.60
2023-05-25T16:16:09.798Z,22.50
2023-05-25T16:21:11.910Z,22.50
2023-05-25T16:26:13.771Z,22.40
2023-05-25T16:31:16.603Z,22.20
2023-05-25T16:36:18.517Z,22.10
2023-05-25T16:41:20.536Z,22.10
2023-05-25T16:46:22.476Z,22.00
2023-05-25T16:51:24.482Z,21.90
2023-05-25T16:56:26.758Z,21.90
2023-05-25T17:01:28.642Z,21.90
2023-05-25T17:06:31.190Z,21.80
2023-05-25T17:11:35.097Z,21.80
2023-05-25T17:16:39.297Z,21.70
2023-05-25T17:21:41.320Z,21.60
2023-05-25T17:26:43.195Z,21.60
2023-05-25T17:31:48.304Z,21.50
2023-05-25T17:36:50.679Z,21.50
2023-05-25T17:41:52.565Z,21.40
2023-05-25T17:46:54.490Z,21.30
2023-05-25T17:52:02.093Z,21.20
2023-05-25T17:57:04.222Z,21.10
2023-05-25T18:02:08.611Z,21.00
2023-05-25T18:07:10.685Z,20.80
2023-05-25T18:12:12.576Z,20.70
2023-05-25T18:17:14.620Z,20.50
2023-05-25T18:22:16.832Z,20.40
2023-05-25T18:27:18.993Z,20.20
2023-05-25T18:32:23.872Z,20.00
2023-05-25T18:37:26.519Z,19.90
2023-05-25T18:42:28.510Z,19.60
2023-05-25T18:47:30.456Z,19.40
2023-05-25T18:52:32.422Z,19.30
2023-05-25T18:57:34.513Z,19.10
2023-05-25T19:02:37.068Z,19.00
2023-05-25T19:07:54.707Z,18.90
2023-05-25T19:12:59.991Z,18.70
2023-05-25T19:18:07.997Z,18.60
2023-05-25T19:23:10.534Z,18.40
2023-05-25T19:28:12.973Z,18.20
2023-05-25T19:33:14.928Z,18.00
2023-05-25T19:38:16.906Z,17.90
2023-05-25T19:43:19.011Z,17.90
2023-05-25T19:48:24.239Z,17.80
2023-05-25T19:54:17.135Z,17.60
2023-05-25T19:59:21.197Z,17.40
2023-05-25T20:04:23.188Z,17.30
2023-05-25T20:09:30.229Z,17.30
2023-05-25T20:14:33.712Z,17.20
2023-05-25T20:19:35.706Z,17.10
2023-05-25T20:24:37.645Z,17.00
2023-05-25T20:29:39.688Z,17.00
2023-05-25T20:34:41.836Z,16.90
2023-05-25T20:39:43.880Z,16.90
2023-05-25T20:44:45.845Z,16.80
2023-05-25T20:49:47.708Z,16.70
2023-05-25T20:54:49.571Z,16.70
2023-05-25T20:59:51.770Z,16.60
2023-05-25T21:04:53.652Z,16.50
2023-05-25T21:10:01.599Z,16.30
2023-05-25T21:15:04.157Z,16.20
2023-05-25T21:20:07.078Z,16.10
2023-05-25T21:25:09.335Z,16.10
2023-05-25T21:30:11.898Z,15.90
2023-05-25T21:35:17.918Z,15.90
2023-05-25T21:40:19.768Z,15.80
2023-05-25T21:45:21.683Z,15.70
2023-05-25T21:50:23.559Z,15.60
2023-05-25T21:55:25.520Z,15.50
2023-05-25T22:00:27.364Z,15.30
2023-05-25T22:05:34.178Z,15.30
2023-05-25T22:10:36.577Z,15.20
2023-05-25T22:15:39.042Z,15.20
2023-05-25T22:20:42.085Z,15.10
2023-05-25T22:25:44.326Z,15.10
2023-05-25T22:30:46.450Z,15.00
2023-05-25T22:35:48.663Z,14.90
2023-05-25T22:40:50.681Z,14.80
2023-05-25T22:45:54.082Z,14.70
2023-05-25T22:50:55.927Z,14.70
2023-05-25T22:55:57.853Z,14.60
2023-05-25T23:00:59.697Z,14.50
2023-05-25T23:06:01.576Z,14.40
2023-05-25T23:11:03.476Z,14.40
2023-05-25T23:16:05.749Z,14.40
2023-05-25T23:21:07.650Z,14.30
2023-05-25T23:26:09.540Z,14.20
2023-05-25T23:31:11.473Z,14.20
2023-05-25T23:36:14.222Z,14.20
2023-05-25T23:41:17.191Z,14.10
2023-05-25T23:46:19.308Z,14.10
2023-05-25T23:51:21.290Z,14.00
2023-05-25T23:56:23.201Z,13.90
